Terminal Aerodrome Forecast
Issued by NWS

Home | Current Version | Previous Version | Text Only | Print | Product List | Glossary On
Versions: 1 2 3 4 5 6 7 8 9 10 11 12 13
461
FTUS44 KSJT 081720
TAFBBD
TAF
KBBD 081720Z 0818/0918 01012G18KT P6SM OVC025
     FM082300 36010KT P6SM BKN040
     FM090300 36005KT P6SM SCT050
      AMD NOT SKED=

USA.gov is the U.S. government's official web portal to all federal, state and local government web resources and services.